Stolt Effort — ZCSP6 — position and weather

sailwx.info

Track history (hours):
 
Tides and Currents Weather Stations Pressure Air Temp Water Temp Dewpoint Dewpoint Depression Visibility Wind Speed Wind Dir Waves Ship Positions

Stolt Effort

Last reported at 2017-Oct-28 15:28 UTC. Time now 2017-Nov-20 17:43 UTC.
Position N 29°23' W 094°48'.
Warning: this ship's position is 23 days out of date.

Length 176 m; draft 11.2 m.

Type: Ship. MMSI: 319445000.

Date/timePositionNaut miles runAvg speedWind from/ knotsBaromVisibWave heightAir tempDewpointWater temp
2017-Oct-28 15:28N 29°23' W 094°48'611.4
2017-Oct-28 14:56N 29°28' W 094°51'510.9
2017-Oct-28 14:30N 29°32' W 094°54'510.7
2017-Oct-28 14:00N 29°37' W 094°57'510.4
2017-Oct-28 13:30N 29°41' W 094°59'4 8.1
2017-Oct-28 13:00N 29°44' W 095°03'3 0.1
2017-Oct-27 01:12N 29°45' W 095°06'0 0.6
2017-Oct-27 00:56N 29°45' W 095°06'2 5.8
2017-Oct-27 00:30N 29°44' W 095°03'4 8.5
2017-Oct-27 00:00N 29°41' W 094°59'611.4
2017-Oct-26 23:30N 29°36' W 094°57'611.8
2017-Oct-26 23:00N 29°31' W 094°53'  
2017-Oct-20 10:39N 29°23' W 094°48'212.1
2017-Oct-20 10:30N 29°24' W 094°49'611.8
2017-Oct-20 10:01N 29°30' W 094°52'611.5
2017-Oct-20 09:30N 29°34' W 094°56'611.2
2017-Oct-20 09:00N 29°40' W 094°58'  
Track history (hours):
 
Tides and Currents Weather Stations Pressure Air Temp Water Temp Dewpoint Dewpoint Depression Visibility Wind Speed Wind Dir Waves Ship Positions

Stolt Effort

Last reported at 2017-Oct-28 15:28 UTC. Time now 2017-Nov-20 17:43 UTC.
Position N 29°23' W 094°48'.
Warning: this ship's position is 23 days out of date.

Length 176 m; draft 11.2 m.

Type: Ship. MMSI: 319445000.

Date/timePositionNaut miles runAvg speedWind from/ knotsBaromVisibWave heightAir tempDewpointWater temp
2017-Oct-28 15:28N 29°23' W 094°48'611.4
2017-Oct-28 14:56N 29°28' W 094°51'510.9
2017-Oct-28 14:30N 29°32' W 094°54'510.7
2017-Oct-28 14:00N 29°37' W 094°57'510.4
2017-Oct-28 13:30N 29°41' W 094°59'4 8.1
2017-Oct-28 13:00N 29°44' W 095°03'3 0.1
2017-Oct-27 01:12N 29°45' W 095°06'0 0.6
2017-Oct-27 00:56N 29°45' W 095°06'2 5.8
2017-Oct-27 00:30N 29°44' W 095°03'4 8.5
2017-Oct-27 00:00N 29°41' W 094°59'611.4
2017-Oct-26 23:30N 29°36' W 094°57'611.8
2017-Oct-26 23:00N 29°31' W 094°53'  
2017-Oct-20 10:39N 29°23' W 094°48'212.1
2017-Oct-20 10:30N 29°24' W 094°49'611.8
2017-Oct-20 10:01N 29°30' W 094°52'611.5
2017-Oct-20 09:30N 29°34' W 094°56'611.2
2017-Oct-20 09:00N 29°40' W 094°58'  

Dump ship's entire track history